createdAt,value
2019-04-20T00:03:38.090Z,3.67
2019-04-20T00:13:48.963Z,3.83
2019-04-20T00:23:43.735Z,5.00
2019-04-20T00:33:53.698Z,5.00
2019-04-20T00:43:47.160Z,5.97
2019-04-20T00:53:51.461Z,6.30
2019-04-20T01:04:10.679Z,6.23
2019-04-20T01:13:58.858Z,6.07
2019-04-20T01:23:59.933Z,5.37
2019-04-20T01:34:06.242Z,5.93
2019-04-20T01:44:02.627Z,5.47
2019-04-20T01:54:17.703Z,5.67
2019-04-20T02:04:07.326Z,6.23
2019-04-20T02:14:10.888Z,6.00
2019-04-20T02:24:13.133Z,7.27
2019-04-20T02:34:47.860Z,6.47
2019-04-20T02:54:53.645Z,6.90
2019-04-20T03:04:34.152Z,6.43
2019-04-20T03:14:39.675Z,6.33
2019-04-20T03:24:48.653Z,6.60
2019-04-20T03:35:05.370Z,6.70
2019-04-20T03:44:35.849Z,6.23
2019-04-20T03:54:48.107Z,6.63
2019-04-20T04:04:59.093Z,6.20
2019-04-20T04:14:42.862Z,6.17
2019-04-20T04:24:58.877Z,6.77
2019-04-20T04:35:01.710Z,6.83
2019-04-20T04:44:59.266Z,6.20
2019-04-20T04:54:57.161Z,6.27
2019-04-20T05:05:17.961Z,6.80
2019-04-20T05:15:06.089Z,6.13
2019-04-20T05:25:18.393Z,5.70
2019-04-20T05:35:26.878Z,5.70
2019-04-20T05:45:20.647Z,5.97
2019-04-20T05:55:35.961Z,5.30
2019-04-20T06:05:36.482Z,5.90
2019-04-20T06:15:38.459Z,6.87
2019-04-20T06:25:47.666Z,5.37
2019-04-20T06:36:01.205Z,7.00
2019-04-20T06:45:55.120Z,6.10
2019-04-20T06:55:48.661Z,6.60
2019-04-20T07:05:50.519Z,7.33
2019-04-20T07:15:46.467Z,6.73
2019-04-20T07:26:05.851Z,6.33
2019-04-20T07:35:55.975Z,6.83
2019-04-20T07:46:10.259Z,7.50
2019-04-20T07:56:04.930Z,7.20
2019-04-20T08:06:01.674Z,7.43
2019-04-20T08:16:20.435Z,7.23
2019-04-20T08:26:06.588Z,5.97
2019-04-20T08:36:23.415Z,6.30
2019-04-20T08:46:23.108Z,6.43
2019-04-20T08:56:14.554Z,5.90
2019-04-20T09:06:19.352Z,6.80
2019-04-20T09:16:08.902Z,5.83
2019-04-20T09:26:27.019Z,5.33
2019-04-20T09:36:27.527Z,6.20
2019-04-20T09:46:15.855Z,5.63
2019-04-20T09:56:32.364Z,5.20
2019-04-20T10:06:24.743Z,4.77
2019-04-20T10:16:23.810Z,5.70
2019-04-20T10:26:24.784Z,5.27
2019-04-20T10:36:25.786Z,5.83
2019-04-20T10:46:26.964Z,4.67
2019-04-20T10:56:27.695Z,4.73
2019-04-20T11:06:28.951Z,4.83
2019-04-20T11:16:30.640Z,4.33
2019-04-20T11:26:32.188Z,5.10
2019-04-20T11:36:34.978Z,4.33
2019-04-20T11:46:36.588Z,3.87
2019-04-20T11:56:41.868Z,4.17
2019-04-20T12:06:41.424Z,4.67
2019-04-20T12:16:43.639Z,4.30
2019-04-20T12:26:44.808Z,4.47
2019-04-20T12:36:46.908Z,4.50
2019-04-20T12:46:47.855Z,4.33
2019-04-20T12:56:48.802Z,4.67
2019-04-20T13:06:52.405Z,4.63
2019-04-20T13:16:53.967Z,4.80
2019-04-20T13:26:55.265Z,4.90
2019-04-20T13:36:56.407Z,5.10
2019-04-20T13:47:00.907Z,4.80
2019-04-20T13:57:02.232Z,5.07
2019-04-20T14:07:04.007Z,4.50
2019-04-20T14:17:05.434Z,4.70
2019-04-20T14:27:06.603Z,4.80
2019-04-20T14:37:08.744Z,4.43
2019-04-20T14:47:11.832Z,5.50
2019-04-20T14:57:13.717Z,4.93
2019-04-20T15:07:15.019Z,4.80
2019-04-20T15:17:17.144Z,4.57
2019-04-20T15:27:20.235Z,4.20
2019-04-20T15:37:23.489Z,3.90
2019-04-20T15:47:25.701Z,3.90
2019-04-20T15:57:29.114Z,4.20
2019-04-20T16:07:32.917Z,4.37
2019-04-20T16:17:38.314Z,5.30
2019-04-20T16:27:36.049Z,3.60
2019-04-20T16:37:40.040Z,3.60
2019-04-20T16:47:42.146Z,3.27
2019-04-20T16:57:46.617Z,3.80
2019-04-20T17:07:47.117Z,3.80
2019-04-20T17:17:50.274Z,4.27
2019-04-20T17:27:53.099Z,5.43
2019-04-20T17:37:54.170Z,4.60
2019-04-20T17:48:14.611Z,4.80
2019-04-20T17:58:01.737Z,5.10
2019-04-20T18:08:22.427Z,4.00
2019-04-20T18:28:54.859Z,4.90
2019-04-20T18:38:40.582Z,4.50
2019-04-20T18:48:57.142Z,4.37
2019-04-20T18:58:35.627Z,3.97
2019-04-20T19:08:40.400Z,4.80
2019-04-20T19:18:56.035Z,4.17
2019-04-20T19:28:48.324Z,5.17
2019-04-20T19:39:01.501Z,4.47
2019-04-20T19:48:55.923Z,4.70
2019-04-20T19:59:05.154Z,4.90
2019-04-20T20:08:57.977Z,5.20
2019-04-20T20:19:06.037Z,4.80
2019-04-20T20:29:09.744Z,5.23
2019-04-20T20:39:11.024Z,5.20
2019-04-20T20:49:25.340Z,4.97
2019-04-20T20:59:13.911Z,5.00
2019-04-20T21:09:10.400Z,4.77
2019-04-20T21:19:24.474Z,5.40
2019-04-20T21:29:19.189Z,6.60
2019-04-20T21:39:31.316Z,10.70
2019-04-20T21:49:36.130Z,6.83
2019-04-20T21:59:32.053Z,6.47
2019-04-20T22:09:34.420Z,6.43
2019-04-20T22:19:41.080Z,7.80
2019-04-20T22:29:32.518Z,7.03
2019-04-20T22:39:39.673Z,6.70
2019-04-20T22:49:50.058Z,6.80
2019-04-20T22:59:48.434Z,7.00
2019-04-20T23:09:49.068Z,5.93
2019-04-20T23:19:49.459Z,5.90
2019-04-20T23:29:49.229Z,6.30
2019-04-20T23:39:52.620Z,6.70
2019-04-20T23:50:10.764Z,6.87
2019-04-20T23:59:55.730Z,6.77
